KHRI

Hermiston Municipal Airport

Hermiston, Oregon, USA
METAR KHRI 161153Z AUTO 08015KT 10SM -RA BKN065 OVC085 06/01 A2991 RMK AO2 RAB32 PRESFR SLP130 P0000 60000 T00560011 10061 20039 58010
Observed Flight Rules
Dec-16 @ 11:53 UTC (58 minutes ago) Visual Flight Rules
Wind Visibility Clouds Conditions
80° at 15 knots 10 miles
  • Broken at 6,500' AGL
  • Overcast at 8,500' AGL
  • Light Rain
Temperatures Readings Precipitation
Current 6°C / 43°F
Dewpoint 1°C / 34°F
Humidity 71%
Altimeter 29.91" Hg
Pressure 1013 hPa
Elevation 195
Current Rain 0.005
METAR KHRI 161153Z AUTO 08015KT 10SM -RA BKN065 OVC085 06/01 A2991 RMK AO2 RAB32 PRESFR SLP130 P0000 60000 T00560011 10061 20039 58010
Observed Flight Rules
Dec-16 @ 11:53 UTC
(58 minutes ago)
VFR
Wind Visibility
80° at 15 knots 10 miles
Clouds
  • Broken at 6,500' AGL
  • Overcast at 8,500' AGL
Conditions
  • Light Rain
Temperature Dewpoint
6°C / 43°F 1°C / 34°F
Humidity Altimeter Pressure
71% 29.91" Hg 1013 hPa
Current Rain
0.005